sensor_id;sensor_type;location;lat;lon;timestamp;P1;durP1;ratioP1;P2;durP2;ratioP2
52530;SDS011;38441;52.894;6.040;2023-08-06T06:58:33;9.43;;;7.57;;
52530;SDS011;38441;52.894;6.040;2023-08-06T07:00:59;10.32;;;7.13;;
52530;SDS011;38441;52.894;6.040;2023-08-06T07:03:24;9.43;;;7.25;;
52530;SDS011;38441;52.894;6.040;2023-08-06T07:05:50;11.45;;;8.63;;
52530;SDS011;38441;52.894;6.040;2023-08-06T07:08:16;11.30;;;7.60;;
52530;SDS011;38441;52.894;6.040;2023-08-06T07:10:42;9.70;;;7.88;;
52530;SDS011;38441;52.894;6.040;2023-08-06T07:13:08;10.80;;;7.80;;
52530;SDS011;38441;52.894;6.040;2023-08-06T07:15:34;8.60;;;7.38;;
52530;SDS011;38441;52.894;6.040;2023-08-06T07:18:00;9.35;;;7.45;;
52530;SDS011;38441;52.894;6.040;2023-08-06T07:20:26;8.57;;;7.35;;
52530;SDS011;38441;52.894;6.040;2023-08-06T07:22:56;8.80;;;7.88;;
52530;SDS011;38441;52.894;6.040;2023-08-06T07:25:23;9.18;;;7.50;;
52530;SDS011;38441;52.894;6.040;2023-08-06T07:27:49;8.70;;;7.25;;
52530;SDS011;38441;52.894;6.040;2023-08-06T07:30:14;11.45;;;8.15;;
52530;SDS011;38441;52.894;6.040;2023-08-06T07:32:40;13.75;;;7.72;;
52530;SDS011;38441;52.894;6.040;2023-08-06T07:38:03;8.75;;;7.82;;
52530;SDS011;38441;52.894;6.040;2023-08-06T07:44:24;9.13;;;7.57;;
52530;SDS011;38441;52.894;6.040;2023-08-06T07:56:29;10.57;;;8.40;;
52530;SDS011;38441;52.894;6.040;2023-08-06T07:58:56;11.23;;;7.65;;
52530;SDS011;38441;52.894;6.040;2023-08-06T08:21:53;9.90;;;8.27;;
52530;SDS011;38441;52.894;6.040;2023-08-06T08:28:59;11.73;;;8.48;;
52530;SDS011;38441;52.894;6.040;2023-08-06T08:56:50;11.52;;;8.73;;
52530;SDS011;38441;52.894;6.040;2023-08-06T09:03:13;10.52;;;9.30;;
52530;SDS011;38441;52.894;6.040;2023-08-06T09:05:46;12.32;;;9.45;;
52530;SDS011;38441;52.894;6.040;2023-08-06T09:15:35;10.25;;;9.18;;
52530;SDS011;38441;52.894;6.040;2023-08-06T09:18:08;11.18;;;8.45;;
52530;SDS011;38441;52.894;6.040;2023-08-06T09:20:40;9.15;;;8.15;;
52530;SDS011;38441;52.894;6.040;2023-08-06T09:26:11;9.57;;;8.40;;
52530;SDS011;38441;52.894;6.040;2023-08-06T09:29:03;8.10;;;7.28;;
52530;SDS011;38441;52.894;6.040;2023-08-06T09:31:46;10.25;;;8.13;;
52530;SDS011;38441;52.894;6.040;2023-08-06T09:34:41;8.63;;;7.57;;
52530;SDS011;38441;52.894;6.040;2023-08-06T09:37:11;8.95;;;6.78;;
52530;SDS011;38441;52.894;6.040;2023-08-06T09:39:38;8.52;;;6.85;;
52530;SDS011;38441;52.894;6.040;2023-08-06T09:42:09;6.85;;;6.13;;
52530;SDS011;38441;52.894;6.040;2023-08-06T09:44:44;9.95;;;6.55;;
52530;SDS011;38441;52.894;6.040;2023-08-06T09:47:10;7.57;;;6.20;;
52530;SDS011;38441;52.894;6.040;2023-08-06T09:52:15;9.35;;;6.30;;
52530;SDS011;38441;52.894;6.040;2023-08-06T09:54:47;7.32;;;5.68;;
52530;SDS011;38441;52.894;6.040;2023-08-06T09:57:19;7.93;;;5.97;;
52530;SDS011;38441;52.894;6.040;2023-08-06T10:00:23;6.45;;;4.47;;
52530;SDS011;38441;52.894;6.040;2023-08-06T10:02:49;6.43;;;4.57;;
52530;SDS011;38441;52.894;6.040;2023-08-06T10:05:21;5.00;;;3.72;;
52530;SDS011;38441;52.894;6.040;2023-08-06T10:07:47;4.85;;;3.70;;
52530;SDS011;38441;52.894;6.040;2023-08-06T10:10:15;5.85;;;3.60;;
52530;SDS011;38441;52.894;6.040;2023-08-06T10:12:51;5.43;;;3.50;;
52530;SDS011;38441;52.894;6.040;2023-08-06T10:15:24;4.63;;;3.00;;
52530;SDS011;38441;52.894;6.040;2023-08-06T10:17:52;4.85;;;3.20;;
52530;SDS011;38441;52.894;6.040;2023-08-06T10:20:21;3.90;;;2.88;;
52530;SDS011;38441;52.894;6.040;2023-08-06T10:23:00;5.28;;;2.72;;
52530;SDS011;38441;52.894;6.040;2023-08-06T10:25:26;6.03;;;3.05;;
52530;SDS011;38441;52.894;6.040;2023-08-06T10:28:00;4.78;;;2.78;;
52530;SDS011;38441;52.894;6.040;2023-08-06T10:30:27;4.93;;;2.72;;
52530;SDS011;38441;52.894;6.040;2023-08-06T10:33:03;4.43;;;2.95;;
52530;SDS011;38441;52.894;6.040;2023-08-06T10:35:37;4.53;;;2.88;;
52530;SDS011;38441;52.894;6.040;2023-08-06T10:38:14;4.28;;;2.70;;
52530;SDS011;38441;52.894;6.040;2023-08-06T10:40:44;3.47;;;2.42;;
52530;SDS011;38441;52.894;6.040;2023-08-06T10:43:51;3.33;;;2.40;;
52530;SDS011;38441;52.894;6.040;2023-08-06T10:46:42;3.90;;;2.55;;
52530;SDS011;38441;52.894;6.040;2023-08-06T10:49:16;3.78;;;2.83;;
52530;SDS011;38441;52.894;6.040;2023-08-06T10:51:46;3.90;;;2.50;;
52530;SDS011;38441;52.894;6.040;2023-08-06T10:57:54;3.83;;;2.25;;
52530;SDS011;38441;52.894;6.040;2023-08-06T11:21:21;3.92;;;2.53;;
52530;SDS011;38441;52.894;6.040;2023-08-06T11:24:14;5.20;;;2.20;;
52530;SDS011;38441;52.894;6.040;2023-08-06T11:27:25;4.20;;;2.38;;
52530;SDS011;38441;52.894;6.040;2023-08-06T11:30:06;3.85;;;1.70;;
52530;SDS011;38441;52.894;6.040;2023-08-06T11:36:32;3.50;;;1.80;;
52530;SDS011;38441;52.894;6.040;2023-08-06T11:39:16;3.25;;;2.10;;
52530;SDS011;38441;52.894;6.040;2023-08-06T11:48:35;5.30;;;1.98;;
52530;SDS011;38441;52.894;6.040;2023-08-06T11:59:40;4.13;;;1.77;;
52530;SDS011;38441;52.894;6.040;2023-08-06T12:02:07;2.63;;;1.60;;
52530;SDS011;38441;52.894;6.040;2023-08-06T12:04:57;3.03;;;1.60;;
52530;SDS011;38441;52.894;6.040;2023-08-06T12:07:38;5.07;;;1.90;;
52530;SDS011;38441;52.894;6.040;2023-08-06T12:10:09;2.83;;;1.58;;
52530;SDS011;38441;52.894;6.040;2023-08-06T12:12:35;4.07;;;1.90;;
52530;SDS011;38441;52.894;6.040;2023-08-06T12:15:03;4.00;;;1.67;;
52530;SDS011;38441;52.894;6.040;2023-08-06T12:17:31;3.65;;;1.83;;
52530;SDS011;38441;52.894;6.040;2023-08-06T12:19:58;4.53;;;1.92;;
52530;SDS011;38441;52.894;6.040;2023-08-06T12:22:25;2.55;;;1.55;;
52530;SDS011;38441;52.894;6.040;2023-08-06T12:24:53;2.80;;;1.50;;
52530;SDS011;38441;52.894;6.040;2023-08-06T12:27:19;3.78;;;1.77;;
52530;SDS011;38441;52.894;6.040;2023-08-06T12:29:45;3.53;;;1.90;;
52530;SDS011;38441;52.894;6.040;2023-08-06T12:32:14;4.43;;;1.95;;
52530;SDS011;38441;52.894;6.040;2023-08-06T12:34:42;3.85;;;2.05;;
52530;SDS011;38441;52.894;6.040;2023-08-06T12:37:08;3.60;;;2.17;;
52530;SDS011;38441;52.894;6.040;2023-08-06T12:39:37;5.00;;;2.28;;
52530;SDS011;38441;52.894;6.040;2023-08-06T12:42:08;4.95;;;2.20;;
52530;SDS011;38441;52.894;6.040;2023-08-06T12:44:39;4.82;;;2.60;;
52530;SDS011;38441;52.894;6.040;2023-08-06T12:47:12;5.25;;;2.65;;
52530;SDS011;38441;52.894;6.040;2023-08-06T12:49:38;4.10;;;2.10;;
52530;SDS011;38441;52.894;6.040;2023-08-06T12:52:15;4.13;;;2.60;;
52530;SDS011;38441;52.894;6.040;2023-08-06T12:54:46;4.57;;;2.10;;
52530;SDS011;38441;52.894;6.040;2023-08-06T12:57:20;4.57;;;2.20;;
52530;SDS011;38441;52.894;6.040;2023-08-06T13:02:38;3.55;;;2.20;;
52530;SDS011;38441;52.894;6.040;2023-08-06T13:05:09;4.30;;;2.30;;
52530;SDS011;38441;52.894;6.040;2023-08-06T13:07:43;5.40;;;2.38;;
52530;SDS011;38441;52.894;6.040;2023-08-06T13:10:14;6.18;;;2.20;;
52530;SDS011;38441;52.894;6.040;2023-08-06T13:12:47;3.92;;;2.38;;
52530;SDS011;38441;52.894;6.040;2023-08-06T13:15:33;3.60;;;2.47;;
52530;SDS011;38441;52.894;6.040;2023-08-06T13:18:02;4.28;;;2.40;;
52530;SDS011;38441;52.894;6.040;2023-08-06T13:20:30;5.32;;;2.63;;
52530;SDS011;38441;52.894;6.040;2023-08-06T13:22:57;4.75;;;2.30;;
52530;SDS011;38441;52.894;6.040;2023-08-06T13:25:42;3.90;;;2.17;;
52530;SDS011;38441;52.894;6.040;2023-08-06T13:28:13;4.03;;;2.50;;
52530;SDS011;38441;52.894;6.040;2023-08-06T13:33:32;4.03;;;2.40;;
52530;SDS011;38441;52.894;6.040;2023-08-06T13:35:57;5.07;;;2.42;;
52530;SDS011;38441;52.894;6.040;2023-08-06T13:44:58;2.72;;;1.98;;
52530;SDS011;38441;52.894;6.040;2023-08-06T13:47:51;4.38;;;2.45;;
52530;SDS011;38441;52.894;6.040;2023-08-06T13:51:00;5.00;;;2.40;;
52530;SDS011;38441;52.894;6.040;2023-08-06T13:53:39;3.83;;;2.30;;
52530;SDS011;38441;52.894;6.040;2023-08-06T13:56:08;4.93;;;2.60;;
52530;SDS011;38441;52.894;6.040;2023-08-06T13:59:00;5.15;;;2.70;;
52530;SDS011;38441;52.894;6.040;2023-08-06T14:01:32;5.07;;;3.13;;
52530;SDS011;38441;52.894;6.040;2023-08-06T14:04:25;5.50;;;3.60;;
52530;SDS011;38441;52.894;6.040;2023-08-06T14:12:43;7.07;;;4.05;;
52530;SDS011;38441;52.894;6.040;2023-08-06T14:15:21;6.65;;;4.35;;
52530;SDS011;38441;52.894;6.040;2023-08-06T14:17:56;5.70;;;3.97;;
52530;SDS011;38441;52.894;6.040;2023-08-06T14:20:45;6.65;;;3.33;;
52530;SDS011;38441;52.894;6.040;2023-08-06T14:23:29;5.07;;;2.67;;
52530;SDS011;38441;52.894;6.040;2023-08-06T14:26:00;5.00;;;3.20;;
52530;SDS011;38441;52.894;6.040;2023-08-06T14:31:22;4.75;;;2.72;;
52530;SDS011;38441;52.894;6.040;2023-08-06T14:34:10;3.97;;;2.10;;
52530;SDS011;38441;52.894;6.040;2023-08-06T14:54:41;4.93;;;2.08;;
52530;SDS011;38441;52.894;6.040;2023-08-06T14:57:12;7.15;;;2.70;;
52530;SDS011;38441;52.894;6.040;2023-08-06T14:59:58;4.53;;;2.58;;
52530;SDS011;38441;52.894;6.040;2023-08-06T15:02:42;4.80;;;2.45;;
52530;SDS011;38441;52.894;6.040;2023-08-06T15:05:07;5.70;;;2.63;;
52530;SDS011;38441;52.894;6.040;2023-08-06T15:07:33;6.45;;;2.78;;
52530;SDS011;38441;52.894;6.040;2023-08-06T15:10:01;4.18;;;2.60;;
52530;SDS011;38441;52.894;6.040;2023-08-06T15:12:34;5.25;;;2.25;;
52530;SDS011;38441;52.894;6.040;2023-08-06T15:14:59;6.90;;;2.83;;
52530;SDS011;38441;52.894;6.040;2023-08-06T15:17:28;4.60;;;2.90;;
52530;SDS011;38441;52.894;6.040;2023-08-06T15:19:58;5.53;;;3.03;;
52530;SDS011;38441;52.894;6.040;2023-08-06T15:22:24;5.45;;;3.05;;
52530;SDS011;38441;52.894;6.040;2023-08-06T15:24:50;7.20;;;3.25;;
52530;SDS011;38441;52.894;6.040;2023-08-06T15:27:18;6.90;;;3.22;;
52530;SDS011;38441;52.894;6.040;2023-08-06T15:29:52;6.00;;;2.45;;
52530;SDS011;38441;52.894;6.040;2023-08-06T15:32:18;5.35;;;2.22;;
52530;SDS011;38441;52.894;6.040;2023-08-06T15:34:44;4.55;;;2.45;;
52530;SDS011;38441;52.894;6.040;2023-08-06T15:37:09;3.65;;;2.05;;
52530;SDS011;38441;52.894;6.040;2023-08-06T15:39:35;4.35;;;2.20;;
52530;SDS011;38441;52.894;6.040;2023-08-06T15:42:01;5.47;;;2.75;;
52530;SDS011;38441;52.894;6.040;2023-08-06T15:44:27;4.63;;;2.30;;
52530;SDS011;38441;52.894;6.040;2023-08-06T15:46:53;4.45;;;2.47;;
52530;SDS011;38441;52.894;6.040;2023-08-06T15:49:19;4.32;;;2.45;;
52530;SDS011;38441;52.894;6.040;2023-08-06T15:51:44;3.42;;;2.45;;
52530;SDS011;38441;52.894;6.040;2023-08-06T15:54:10;3.55;;;2.20;;
52530;SDS011;38441;52.894;6.040;2023-08-06T15:56:36;3.92;;;2.50;;
